Time;durP1;ratioP1;P1;durP2;ratioP2;P2;SDS_P1;SDS_P2;PMS_P1;PMS_P2;Temp;Humidity;BMP_temperature;BMP_pressure;BME280_temperature;BME280_humidity;BME280_pressure;Samples;Min_cycle;Max_cycle;Signal;HPM_P1;HPM_P2
2023/05/04 00:01:47;;;;;;;1.23;1.13;;;;;;;19.42;45.95;96672.44;5033643;28;20033;-29
2023/05/04 00:04:13;;;;;;;1.77;1.20;;;;;;;19.49;45.21;96677.59;5033291;28;20458;-29
2023/05/04 00:06:38;;;;;;;2.75;1.30;;;;;;;19.41;45.63;96668.94;5033406;28;20021;-29
2023/05/04 00:09:05;;;;;;;1.75;1.20;;;;;;;19.34;46.06;96674.84;5032267;28;20034;-29
2023/05/04 00:11:31;;;;;;;1.20;1.10;;;;;;;19.41;45.97;96677.19;5034193;28;20013;-29
2023/05/04 00:13:57;;;;;;;1.35;1.25;;;;;;;19.56;45.57;96674.44;5038080;28;20029;-29
2023/05/04 00:16:22;;;;;;;2.72;1.20;;;;;;;19.28;45.94;96671.28;5033113;28;20435;-29
2023/05/04 00:18:47;;;;;;;2.33;1.20;;;;;;;19.43;45.63;96669.22;5033412;28;20019;-29
2023/05/04 00:21:13;;;;;;;1.80;1.27;;;;;;;19.40;45.62;96666.69;5033360;28;20547;-29
2023/05/04 00:23:38;;;;;;;2.47;1.20;;;;;;;19.22;45.77;96671.19;5033161;28;20036;-29
2023/05/04 00:26:04;;;;;;;1.70;1.30;;;;;;;19.33;45.50;96665.84;5033455;28;20013;-30
2023/05/04 00:28:29;;;;;;;1.55;1.35;;;;;;;19.36;45.63;96664.13;5032944;28;20078;-29
2023/05/04 00:30:55;;;;;;;1.73;1.30;;;;;;;19.53;45.20;96662.41;5031793;28;20100;-29
2023/05/04 00:33:21;;;;;;;2.20;1.30;;;;;;;19.34;45.53;96658.34;5033157;28;20361;-29
2023/05/04 00:35:46;;;;;;;1.77;1.40;;;;;;;19.33;45.83;96654.09;5033120;28;20032;-30
2023/05/04 00:38:12;;;;;;;1.60;1.40;;;;;;;19.45;45.39;96658.50;5033597;28;20101;-29
2023/05/04 00:40:39;;;;;;;1.70;1.30;;;;;;;19.22;46.12;96642.94;5038716;28;20033;-29
2023/05/04 00:43:04;;;;;;;1.98;1.60;;;;;;;19.48;45.34;96649.31;5036603;28;20023;-30
2023/05/04 00:45:30;;;;;;;1.42;1.23;;;;;;;19.35;45.67;96643.38;5037022;28;20128;-29
2023/05/04 00:47:57;;;;;;;1.35;1.23;;;;;;;19.25;45.66;96642.75;5036861;28;20115;-29
2023/05/04 00:50:23;;;;;;;1.77;1.40;;;;;;;19.32;45.66;96641.56;5037134;28;20022;-29
2023/05/04 00:52:50;;;;;;;5.68;1.50;;;;;;;19.32;45.72;96641.56;5036938;28;20047;-29
2023/05/04 00:55:16;;;;;;;1.85;1.40;;;;;;;19.33;45.65;96648.59;5044243;28;20044;-29
2023/05/04 00:57:42;;;;;;;2.67;1.50;;;;;;;19.23;45.79;96633.44;5048500;28;20101;-30
2023/05/04 01:00:09;;;;;;;2.35;1.70;;;;;;;19.36;45.67;96644.88;5036841;28;20029;-29
2023/05/04 01:02:35;;;;;;;2.67;1.65;;;;;;;19.16;45.69;96642.88;5036764;28;20053;-29
2023/05/04 01:05:01;;;;;;;5.00;1.90;;;;;;;19.19;46.02;96646.63;5035356;28;20069;-29
2023/05/04 01:07:45;;;;;;;3.10;1.70;;;;;;;19.34;45.57;96644.59;5037654;28;20195;-30
2023/05/04 01:10:39;;;;;;;2.20;1.60;;;;;;;19.35;45.59;96641.38;5036865;28;20045;-30
2023/05/04 01:13:10;;;;;;;2.42;1.60;;;;;;;19.14;46.31;96637.09;5036681;28;20017;-30
2023/05/04 01:15:35;;;;;;;2.08;1.77;;;;;;;19.22;46.51;96642.94;5037044;28;20024;-29
2023/05/04 01:18:01;;;;;;;1.90;1.70;;;;;;;19.21;45.88;96638.66;5036747;28;20021;-29
2023/05/04 01:20:26;;;;;;;3.60;2.25;;;;;;;19.29;45.77;96639.78;5036640;28;20025;-29
2023/05/04 01:22:53;;;;;;;2.50;1.77;;;;;;;19.28;45.91;96652.03;5036704;28;20086;-30
2023/05/04 01:25:19;;;;;;;2.10;1.80;;;;;;;19.43;45.54;96646.47;5036596;28;20377;-29
2023/05/04 01:28:01;;;;;;;3.10;1.80;;;;;;;19.26;45.89;96651.75;5044992;28;20036;-29
2023/05/04 01:30:34;;;;;;;2.00;1.80;;;;;;;19.15;46.10;96648.84;5036466;28;20476;-29
2023/05/04 01:33:01;;;;;;;2.20;1.95;;;;;;;19.15;46.07;96644.09;5035543;28;20420;-30
2023/05/04 01:35:27;;;;;;;3.85;1.50;;;;;;;19.32;45.78;96644.31;5036433;28;20438;-30
2023/05/04 01:37:53;;;;;;;2.15;1.60;;;;;;;19.28;46.15;96643.78;5036586;28;20076;-30
2023/05/04 01:40:19;;;;;;;2.00;1.70;;;;;;;19.29;45.72;96648.78;5036175;28;20496;-30
2023/05/04 01:42:44;;;;;;;2.85;1.70;;;;;;;19.02;46.46;96647.16;5034581;28;20030;-30
2023/05/04 01:45:10;;;;;;;2.85;1.80;;;;;;;19.15;45.85;96649.59;5036282;28;20022;-29
2023/05/04 01:47:36;;;;;;;2.20;1.90;;;;;;;18.96;46.39;96662.78;5036261;28;20025;-30
2023/05/04 01:50:01;;;;;;;2.35;1.90;;;;;;;19.04;46.57;96663.16;5036131;28;20499;-29
2023/05/04 01:52:27;;;;;;;2.30;1.98;;;;;;;18.95;46.70;96655.78;5035771;28;20031;-30
2023/05/04 01:54:53;;;;;;;2.10;1.73;;;;;;;19.34;45.84;96659.13;5035769;28;20401;-29
2023/05/04 01:57:18;;;;;;;2.22;1.90;;;;;;;19.20;46.33;96667.41;5036301;28;20037;-30
2023/05/04 01:59:43;;;;;;;2.08;1.83;;;;;;;19.04;46.51;96662.41;5036000;28;20021;-30
2023/05/04 02:02:09;;;;;;;2.08;1.80;;;;;;;18.90;46.77;96661.22;5035599;28;20025;-31
2023/05/04 02:04:36;;;;;;;3.03;1.70;;;;;;;19.04;46.64;96657.66;5035834;28;20027;-29
2023/05/04 02:07:01;;;;;;;1.95;1.75;;;;;;;19.14;46.07;96661.06;5035618;28;20385;-29
2023/05/04 02:09:26;;;;;;;2.15;1.60;;;;;;;19.04;45.96;96660.41;5035769;28;20024;-29
2023/05/04 02:11:52;;;;;;;2.30;1.85;;;;;;;18.98;46.36;96662.31;5035451;28;20012;-30
2023/05/04 02:14:17;;;;;;;2.13;1.80;;;;;;;18.84;46.78;96666.59;5035323;28;20067;-30
2023/05/04 02:16:43;;;;;;;2.67;2.10;;;;;;;19.24;46.11;96659.72;5035504;28;20465;-30
2023/05/04 02:19:08;;;;;;;2.88;1.48;;;;;;;18.99;46.50;96669.34;5037309;28;20030;-29
2023/05/04 02:21:34;;;;;;;1.90;1.67;;;;;;;19.15;45.99;96662.59;5035646;28;20029;-30
2023/05/04 02:23:59;;;;;;;2.58;2.00;;;;;;;19.00;46.34;96659.88;5035295;28;20057;-29
2023/05/04 02:26:25;;;;;;;2.70;1.70;;;;;;;19.06;46.43;96668.19;5035188;28;20013;-29
2023/05/04 02:28:51;;;;;;;2.55;1.75;;;;;;;19.11;46.28;96668.28;5035540;28;20112;-29
2023/05/04 02:31:16;;;;;;;1.95;1.83;;;;;;;18.98;46.43;96667.81;5035064;28;20066;-30
2023/05/04 02:33:41;;;;;;;1.60;1.50;;;;;;;19.11;46.15;96662.78;5035059;28;20033;-29
2023/05/04 02:36:07;;;;;;;2.00;1.75;;;;;;;18.92;46.44;96659.47;5035168;28;20026;-30
2023/05/04 02:38:32;;;;;;;3.40;1.90;;;;;;;19.07;46.15;96675.94;5040805;28;20028;-30
2023/05/04 02:40:58;;;;;;;4.13;1.83;;;;;;;19.08;46.16;96665.72;5035097;28;20436;-30
2023/05/04 02:43:23;;;;;;;2.60;1.90;;;;;;;19.03;45.96;96669.91;5034912;28;20396;-30
2023/05/04 02:45:49;;;;;;;2.38;2.00;;;;;;;18.94;46.50;96664.50;5034841;28;20034;-30
2023/05/04 02:48:14;;;;;;;2.30;1.90;;;;;;;19.14;45.94;96667.31;5034827;28;20025;-32
2023/05/04 02:50:40;;;;;;;2.05;1.80;;;;;;;19.10;45.85;96663.25;5034891;28;20071;-30
2023/05/04 02:53:05;;;;;;;2.45;1.92;;;;;;;19.17;45.49;96676.59;5034506;28;20083;-29
2023/05/04 02:55:30;;;;;;;2.40;1.75;;;;;;;19.03;46.06;96675.41;5035672;28;20049;-31
2023/05/04 02:57:56;;;;;;;2.95;2.30;;;;;;;19.09;45.81;96678.22;5044971;28;20032;-29
2023/05/04 03:00:21;;;;;;;3.22;2.50;;;;;;;19.07;46.05;96672.44;5033172;28;20112;-29
2023/05/04 03:02:47;;;;;;;2.47;2.22;;;;;;;19.06;46.09;96679.16;5034591;28;20021;-29
2023/05/04 03:05:15;;;;;;;2.40;2.10;;;;;;;18.85;46.43;96681.84;5032647;28;20473;-29
2023/05/04 03:07:41;;;;;;;2.40;2.20;;;;;;;18.92;46.31;96681.47;5034522;28;20032;-30
2023/05/04 03:10:08;;;;;;;2.75;2.00;;;;;;;19.09;45.81;96678.22;5034600;28;20017;-29
2023/05/04 03:12:33;;;;;;;2.70;2.10;;;;;;;18.96;46.08;96676.53;5041771;28;20082;-31
2023/05/04 03:14:58;;;;;;;3.22;2.10;;;;;;;18.92;46.01;96678.72;5034769;28;20021;-31
2023/05/04 03:17:24;;;;;;;2.67;2.20;;;;;;;18.94;46.08;96686.50;5034523;28;20026;-29
2023/05/04 03:19:49;;;;;;;5.45;2.83;;;;;;;18.97;46.10;96686.31;5034255;28;20017;-29
2023/05/04 03:22:15;;;;;;;2.50;2.25;;;;;;;18.87;46.20;96690.38;5041554;28;20022;-31
2023/05/04 03:24:40;;;;;;;3.88;2.08;;;;;;;19.02;46.08;96684.88;5034548;28;20027;-29
2023/05/04 03:27:05;;;;;;;4.90;2.35;;;;;;;18.78;46.53;96676.00;5034423;28;20017;-30
2023/05/04 03:29:31;;;;;;;3.25;2.28;;;;;;;19.01;45.91;96684.13;5034121;28;20135;-30
2023/05/04 03:31:56;;;;;;;3.72;2.38;;;;;;;19.00;46.05;96674.38;5034032;28;20358;-30
2023/05/04 03:34:22;;;;;;;2.30;2.00;;;;;;;18.98;45.96;96674.06;5033938;28;20480;-29
2023/05/04 03:36:48;;;;;;;4.85;2.25;;;;;;;18.99;46.03;96672.09;5033743;28;20381;-29
2023/05/04 03:39:15;;;;;;;4.05;2.40;;;;;;;19.05;45.69;96678.41;5041274;28;20131;-29
2023/05/04 03:41:40;;;;;;;3.70;2.42;;;;;;;18.85;46.05;96670.09;5032503;28;20025;-30
2023/05/04 03:44:06;;;;;;;3.00;2.17;;;;;;;18.96;45.74;96670.28;5033872;28;20362;-32
2023/05/04 03:46:31;;;;;;;3.08;2.40;;;;;;;18.71;46.26;96677.13;5033975;28;20024;-30
2023/05/04 03:48:57;;;;;;;3.45;2.25;;;;;;;18.88;45.88;96672.66;5033595;28;20476;-30
2023/05/04 03:51:22;;;;;;;3.10;2.08;;;;;;;18.96;45.92;96671.03;5033653;28;20024;-31
2023/05/04 03:53:47;;;;;;;3.47;2.30;;;;;;;19.02;45.89;96679.38;5033363;28;20489;-30
2023/05/04 03:56:13;;;;;;;4.03;2.30;;;;;;;19.05;45.80;96685.91;5033674;28;20037;-30
2023/05/04 03:58:38;;;;;;;3.60;2.40;;;;;;;18.91;46.05;96679.97;5033666;28;20028;-30
2023/05/04 04:01:04;;;;;;;3.08;2.17;;;;;;;18.95;46.12;96677.00;5033341;28;20033;-30
2023/05/04 04:03:30;;;;;;;4.30;2.58;;;;;;;19.01;45.91;96686.88;5033658;28;20030;-31
2023/05/04 04:05:55;;;;;;;3.30;2.28;;;;;;;18.91;45.91;96685.47;5033331;28;20075;-29
2023/05/04 04:08:21;;;;;;;2.83;2.38;;;;;;;18.93;45.86;96680.22;5033550;28;20036;-30
2023/05/04 04:10:46;;;;;;;3.08;2.30;;;;;;;18.90;45.99;96681.19;5033545;28;20024;-30
2023/05/04 04:13:12;;;;;;;3.90;2.42;;;;;;;18.86;46.11;96688.13;5033233;28;20386;-30
2023/05/04 04:15:37;;;;;;;3.83;2.40;;;;;;;19.07;45.42;96692.44;5031894;28;20017;-30
2023/05/04 04:18:03;;;;;;;4.35;2.80;;;;;;;18.82;46.19;96693.03;5033069;28;20017;-30
2023/05/04 04:20:28;;;;;;;4.85;2.40;;;;;;;18.75;46.51;96683.19;5033607;28;20028;-30
2023/05/04 04:22:54;;;;;;;2.85;2.20;;;;;;;18.82;46.13;96684.78;5036570;28;20049;-29
2023/05/04 04:25:20;;;;;;;4.75;2.75;;;;;;;18.75;46.49;96687.94;5033200;28;20067;-30
2023/05/04 04:27:45;;;;;;;3.30;2.75;;;;;;;18.77;46.28;96688.97;5033121;28;20021;-30
2023/05/04 04:30:12;;;;;;;4.15;2.70;;;;;;;18.85;46.36;96681.09;5033514;28;20105;-30
2023/05/04 04:32:37;;;;;;;3.25;2.70;;;;;;;18.95;46.23;96680.50;5033101;28;20504;-30
2023/05/04 04:35:03;;;;;;;3.15;2.22;;;;;;;18.75;46.64;96676.94;5033075;28;20021;-33
2023/05/04 04:37:29;;;;;;;2.88;2.55;;;;;;;18.80;46.36;96679.00;5033051;28;20021;-30
2023/05/04 04:39:54;;;;;;;4.40;2.80;;;;;;;18.85;46.31;96676.38;5039984;28;20025;-30
2023/05/04 04:42:20;;;;;;;3.15;2.60;;;;;;;18.71;46.87;96677.13;5033201;28;20059;-33
2023/05/04 04:44:45;;;;;;;2.92;2.60;;;;;;;18.83;46.81;96678.81;5033238;28;20022;-30
2023/05/04 04:47:11;;;;;;;3.53;2.47;;;;;;;18.68;46.74;96683.56;5032943;28;20098;-30
2023/05/04 04:49:36;;;;;;;3.47;2.55;;;;;;;18.66;46.99;96688.78;5033007;28;20382;-30
2023/05/04 04:52:02;;;;;;;3.15;2.70;;;;;;;18.80;46.97;96690.00;5042538;28;20028;-29
2023/05/04 04:54:28;;;;;;;2.78;2.55;;;;;;;18.74;47.17;96692.66;5032548;28;20052;-29
2023/05/04 04:56:53;;;;;;;3.35;2.72;;;;;;;18.78;47.08;96697.97;5032986;28;20017;-30
2023/05/04 04:59:19;;;;;;;3.65;2.85;;;;;;;18.76;47.03;96695.69;5032834;28;20358;-29
2023/05/04 05:01:45;;;;;;;3.75;2.53;;;;;;;18.87;46.89;96697.88;5032928;28;20470;-29
2023/05/04 05:04:10;;;;;;;4.53;2.90;;;;;;;18.87;46.88;96706.13;5032818;28;20029;-29
2023/05/04 05:06:35;;;;;;;5.30;2.75;;;;;;;18.71;47.25;96710.09;5032720;28;20018;-30
2023/05/04 05:09:01;;;;;;;5.18;2.40;;;;;;;18.83;47.11;96716.53;5032881;28;20026;-30
2023/05/04 05:11:27;;;;;;;2.83;2.40;;;;;;;18.99;47.07;96722.31;5033197;28;20628;-29
2023/05/04 05:13:52;;;;;;;4.47;2.53;;;;;;;18.99;46.73;96722.31;5035008;28;20033;-29
2023/05/04 05:16:17;;;;;;;4.95;2.75;;;;;;;18.86;47.14;96721.09;5032859;28;20071;-30
2023/05/04 05:18:43;;;;;;;3.05;2.72;;;;;;;18.81;47.30;96719.75;5032753;28;20036;-29
2023/05/04 05:21:09;;;;;;;3.17;2.50;;;;;;;18.75;47.09;96735.41;5032846;28;20029;-29
2023/05/04 05:23:35;;;;;;;3.70;2.60;;;;;;;18.65;47.35;96733.97;5032568;28;20034;-30
2023/05/04 05:26:01;;;;;;;3.75;2.55;;;;;;;18.77;47.59;96740.41;5033018;28;20028;-30
2023/05/04 05:28:26;;;;;;;3.38;2.53;;;;;;;18.82;47.18;96737.75;5034823;28;20477;-29
2023/05/04 05:30:52;;;;;;;5.03;2.80;;;;;;;18.78;47.21;96731.72;5036609;28;20029;-29
2023/05/04 05:33:17;;;;;;;3.13;2.72;;;;;;;18.69;47.69;96734.53;5034842;28;20401;-30
2023/05/04 05:35:43;;;;;;;3.42;2.83;;;;;;;18.78;47.53;96736.44;5036326;28;20021;-30
2023/05/04 05:38:09;;;;;;;3.88;2.63;;;;;;;19.02;47.09;96735.13;5036970;28;20025;-29
2023/05/04 05:40:35;;;;;;;3.00;2.70;;;;;;;18.88;47.23;96738.63;5036279;28;20055;-29
2023/05/04 05:43:03;;;;;;;3.85;2.80;;;;;;;18.96;47.13;96742.50;5035999;28;20026;-29
2023/05/04 05:45:29;;;;;;;2.97;2.58;;;;;;;18.75;47.56;96742.88;5036063;28;20025;-29
2023/05/04 05:47:54;;;;;;;3.60;2.85;;;;;;;19.10;47.17;96740.22;5036010;28;20025;-29
2023/05/04 05:50:22;;;;;;;6.30;2.40;;;;;;;18.86;47.55;96743.84;5036042;28;20032;-30
2023/05/04 05:52:47;;;;;;;3.38;2.78;;;;;;;18.94;47.17;96736.72;5035925;28;20144;-29
2023/05/04 05:55:13;;;;;;;4.20;2.80;;;;;;;18.94;47.05;96739.47;5035956;28;20502;-29
2023/05/04 05:57:38;;;;;;;5.45;2.92;;;;;;;18.82;47.39;96734.25;5035898;28;20041;-29
2023/05/04 06:00:06;;;;;;;3.28;2.90;;;;;;;19.16;46.82;96741.09;5035975;28;20029;-29
2023/05/04 06:02:32;;;;;;;4.07;2.80;;;;;;;19.08;46.49;96746.19;5035980;28;20148;-30
2023/05/04 06:04:57;;;;;;;3.53;2.70;;;;;;;19.01;47.02;96743.84;5035556;28;20051;-29
2023/05/04 06:07:23;;;;;;;3.60;3.05;;;;;;;19.16;46.80;96754.84;5036071;28;20116;-29
2023/05/04 06:09:49;;;;;;;3.17;2.60;;;;;;;19.00;47.29;96745.81;5035723;28;20049;-29
2023/05/04 06:12:16;;;;;;;3.78;2.70;;;;;;;19.04;46.55;96748.38;5035533;28;20022;-29
2023/05/04 06:14:41;;;;;;;2.90;2.60;;;;;;;19.13;46.54;96756.53;5035711;28;20392;-30
2023/05/04 06:17:07;;;;;;;4.57;2.90;;;;;;;19.18;46.71;96761.34;5035633;28;20034;-32
2023/05/04 06:19:35;;;;;;;4.05;2.70;;;;;;;19.14;46.83;96751.78;5035791;28;20036;-29
2023/05/04 06:22:00;;;;;;;4.97;2.70;;;;;;;19.09;46.86;96755.97;5035929;28;20096;-29
2023/05/04 06:24:26;;;;;;;4.63;3.15;;;;;;;19.17;46.46;96757.09;5035170;28;20017;-29
2023/05/04 06:26:51;;;;;;;5.10;2.67;;;;;;;19.23;46.80;96757.94;5035626;28;20022;-29
2023/05/04 06:29:17;;;;;;;3.10;2.65;;;;;;;19.24;46.75;96750.44;5035493;28;20017;-29
2023/05/04 06:31:44;;;;;;;3.05;2.63;;;;;;;19.30;46.50;96759.53;5039640;28;20020;-29
2023/05/04 06:34:10;;;;;;;4.15;2.70;;;;;;;19.07;47.00;96765.91;5035213;28;20021;-31
2023/05/04 06:36:35;;;;;;;8.68;2.97;;;;;;;18.95;47.17;96751.22;5035054;28;20137;-30
2023/05/04 06:39:06;;;;;;;7.57;3.10;;;;;;;19.27;46.38;96746.75;5034499;28;20020;-29
2023/05/04 06:41:31;;;;;;;6.85;2.90;;;;;;;19.18;46.70;96753.09;5034973;28;20068;-29
2023/05/04 06:43:58;;;;;;;6.95;3.63;;;;;;;19.10;46.98;96748.47;5035145;28;20025;-29
2023/05/04 06:46:24;;;;;;;6.57;3.20;;;;;;;19.10;47.16;96751.22;5035023;28;20036;-29
2023/05/04 06:48:49;;;;;;;4.50;2.67;;;;;;;19.26;46.77;96757.00;5042092;28;20025;-29
2023/05/04 06:51:15;;;;;;;6.57;2.90;;;;;;;19.17;46.51;96756.31;5034916;28;20022;-29
2023/05/04 06:53:40;;;;;;;8.45;3.25;;;;;;;19.15;47.14;96756.81;5034668;28;20103;-29
2023/05/04 06:56:06;;;;;;;4.43;2.70;;;;;;;19.21;46.79;96756.91;5034925;28;20033;-29
2023/05/04 06:58:32;;;;;;;6.53;3.00;;;;;;;19.11;47.24;96774.72;5034898;28;20025;-29
2023/05/04 07:00:57;;;;;;;3.13;2.25;;;;;;;19.02;47.53;96768.09;5034183;28;20029;-29
2023/05/04 07:03:23;;;;;;;4.18;2.45;;;;;;;19.07;46.98;96761.16;5034705;28;20385;-29
2023/05/04 07:05:49;;;;;;;4.35;2.67;;;;;;;19.33;46.87;96761.34;5034721;28;20534;-30
2023/05/04 07:08:16;;;;;;;4.07;2.60;;;;;;;19.21;46.93;96754.16;5034556;28;20022;-29
2023/05/04 07:10:43;;;;;;;3.35;2.70;;;;;;;19.19;46.83;96753.84;5034421;28;20046;-29
2023/05/04 07:13:08;;;;;;;3.05;2.33;;;;;;;19.38;46.63;96761.44;5034140;28;20024;-29
2023/05/04 07:15:34;;;;;;;3.40;2.28;;;;;;;19.28;46.96;96756.53;5036207;28;20018;-29
2023/05/04 07:18:00;;;;;;;4.20;2.75;;;;;;;19.31;46.60;96753.56;5034240;28;20052;-29
2023/05/04 07:20:26;;;;;;;2.70;2.50;;;;;;;19.29;46.42;96752.50;5041195;28;20420;-30
2023/05/04 07:22:55;;;;;;;3.75;2.42;;;;;;;19.53;46.48;96760.69;5034218;28;20067;-30
2023/05/04 07:25:23;;;;;;;7.25;2.97;;;;;;;19.56;46.23;96763.22;5033455;28;20021;-29
2023/05/04 07:27:49;;;;;;;6.38;2.72;;;;;;;19.55;46.22;96753.44;5041202;28;20461;-29
2023/05/04 07:30:15;;;;;;;5.47;3.03;;;;;;;19.70;46.32;96761.69;5034346;28;20066;-29
2023/05/04 07:32:40;;;;;;;3.70;2.85;;;;;;;19.60;46.36;96755.53;5034148;28;20025;-30
2023/05/04 07:35:06;;;;;;;7.18;2.90;;;;;;;19.66;46.17;96761.09;5034380;28;20470;-31
2023/05/04 07:37:32;;;;;;;3.42;2.25;;;;;;;19.71;46.24;96760.44;5033756;28;20028;-29
2023/05/04 07:39:59;;;;;;;3.22;2.50;;;;;;;19.70;45.88;96754.19;5033803;28;20064;-31
2023/05/04 07:42:26;;;;;;;4.15;2.40;;;;;;;19.56;46.53;96748.72;5034538;28;20374;-29
2023/05/04 07:44:52;;;;;;;2.88;2.55;;;;;;;19.63;46.44;96749.09;5032450;28;20036;-29
2023/05/04 07:47:18;;;;;;;3.47;3.05;;;;;;;19.79;45.95;96745.03;5033924;28;20021;-29
2023/05/04 07:49:43;;;;;;;3.92;2.30;;;;;;;19.65;45.92;96741.13;5033583;28;20025;-30
2023/05/04 07:52:09;;;;;;;5.43;3.30;;;;;;;19.79;46.37;96744.28;5033709;28;20093;-29
2023/05/04 07:54:35;;;;;;;3.20;2.42;;;;;;;19.91;46.00;96746.69;5033180;28;20497;-29
2023/05/04 07:57:02;;;;;;;4.72;2.80;;;;;;;19.90;46.23;96749.97;5033675;28;20123;-29
2023/05/04 07:59:28;;;;;;;2.95;2.45;;;;;;;19.84;46.03;96744.38;5033405;28;20033;-29
2023/05/04 08:01:54;;;;;;;7.45;2.75;;;;;;;19.98;45.78;96748.31;5033490;28;20026;-29
2023/05/04 08:04:19;;;;;;;4.82;2.83;;;;;;;19.88;45.87;96742.19;5033289;28;20032;-30
2023/05/04 08:06:45;;;;;;;4.00;2.40;;;;;;;19.77;46.13;96755.78;5033602;28;20026;-29
2023/05/04 08:09:11;;;;;;;2.78;2.40;;;;;;;20.07;45.80;96753.66;5033419;28;20025;-30
2023/05/04 08:11:38;;;;;;;4.35;3.00;;;;;;;20.01;45.68;96756.38;5033505;28;20059;-29
2023/05/04 08:14:04;;;;;;;3.47;2.65;;;;;;;19.91;46.22;96756.94;5033428;28;20386;-29
2023/05/04 08:16:29;;;;;;;3.60;2.67;;;;;;;20.20;45.82;96753.31;5033317;28;20052;-30
2023/05/04 08:18:55;;;;;;;4.55;2.75;;;;;;;20.11;45.95;96762.50;5033478;28;20025;-29
2023/05/04 08:21:21;;;;;;;3.47;2.60;;;;;;;20.08;45.89;96766.19;5040602;28;20036;-29
2023/05/04 08:23:47;;;;;;;2.80;2.45;;;;;;;20.05;46.21;96767.16;5033061;28;20537;-29
2023/05/04 08:26:13;;;;;;;3.38;2.45;;;;;;;20.26;45.86;96765.94;5033302;28;20024;-30
2023/05/04 08:28:39;;;;;;;3.97;2.22;;;;;;;20.06;46.13;96783.19;5033567;28;20021;-30
2023/05/04 08:31:06;;;;;;;3.08;2.58;;;;;;;20.02;46.22;96768.91;5033461;28;20049;-29
2023/05/04 08:33:32;;;;;;;4.63;2.30;;;;;;;20.18;46.13;96777.81;5033226;28;20029;-29
2023/05/04 08:35:57;;;;;;;3.53;2.70;;;;;;;20.14;46.21;96777.28;5032812;28;20025;-29
2023/05/04 08:38:23;;;;;;;3.50;2.40;;;;;;;20.01;46.66;96770.13;5035654;28;20026;-29
2023/05/04 08:40:48;;;;;;;5.28;3.03;;;;;;;20.07;46.61;96781.97;5034110;28;20033;-29
2023/05/04 08:43:15;;;;;;;3.63;2.50;;;;;;;20.20;46.36;96784.38;5032946;28;20028;-29
2023/05/04 08:45:40;;;;;;;4.05;2.40;;;;;;;20.26;46.42;96785.22;5041339;28;20106;-29
2023/05/04 08:48:07;;;;;;;3.45;2.75;;;;;;;20.15;46.58;96793.34;5033096;28;20049;-29
2023/05/04 08:50:34;;;;;;;3.75;3.00;;;;;;;20.24;46.57;96801.47;5033272;28;20021;-29
2023/05/04 08:53:02;;;;;;;4.40;3.58;;;;;;;20.13;46.85;96806.06;5032809;28;20017;-29
2023/05/04 08:55:30;;;;;;;3.83;3.05;;;;;;;20.13;47.16;96801.31;5032969;28;20060;-29
2023/05/04 08:57:58;;;;;;;4.43;3.25;;;;;;;20.15;46.86;96804.34;5032973;28;20048;-30
2023/05/04 09:00:25;;;;;;;4.53;2.70;;;;;;;20.31;45.88;96797.53;5033023;28;20124;-29
2023/05/04 09:02:51;;;;;;;3.85;3.35;;;;;;;20.23;46.23;96805.44;5034167;28;20446;-31
2023/05/04 09:05:17;;;;;;;4.22;2.80;;;;;;;20.33;46.15;96795.81;5036814;28;20029;-29
2023/05/04 09:07:42;;;;;;;3.38;2.90;;;;;;;20.35;46.06;96807.13;5036601;28;20071;-29
2023/05/04 09:10:10;;;;;;;3.10;2.80;;;;;;;20.26;46.42;96806.50;5036815;28;20021;-32
2023/05/04 09:12:36;;;;;;;4.10;2.67;;;;;;;20.30;46.39;96796.78;5036654;28;20022;-29
2023/05/04 09:15:14;;;;;;;5.85;2.78;;;;;;;20.25;46.37;96811.25;5036943;28;20030;-29
2023/05/04 09:17:39;;;;;;;3.85;2.55;;;;;;;20.46;45.99;96814.78;5044342;28;20068;-30
2023/05/04 09:20:05;;;;;;;3.72;2.83;;;;;;;20.32;45.98;96812.81;5044800;28;20028;-29
2023/05/04 09:22:31;;;;;;;5.07;2.58;;;;;;;20.32;46.15;96808.06;5036217;28;20033;-29
2023/05/04 09:25:06;;;;;;;5.15;2.67;;;;;;;20.21;46.12;96813.44;5036686;28;20025;-29
2023/05/04 09:27:31;;;;;;;5.00;2.53;;;;;;;20.42;45.94;96803.97;5036213;28;20029;-29
2023/05/04 09:29:57;;;;;;;4.82;2.50;;;;;;;20.41;45.84;96799.69;5035538;28;20052;-29
2023/05/04 09:32:22;;;;;;;3.72;2.42;;;;;;;20.31;45.93;96795.53;5036532;28;20067;-29
2023/05/04 09:34:50;;;;;;;6.60;2.65;;;;;;;20.44;45.75;96793.22;5036350;28;20086;-29
2023/05/04 09:37:17;;;;;;;3.30;2.35;;;;;;;20.40;45.63;96787.16;5036601;28;20029;-31
2023/05/04 09:40:09;;;;;;;2.65;2.20;;;;;;;20.47;45.59;96785.22;5036072;28;20059;-30
2023/05/04 09:42:34;;;;;;;6.95;2.80;;;;;;;20.37;45.50;96777.13;5035867;28;20049;-30
2023/05/04 09:45:05;;;;;;;3.75;2.40;;;;;;;20.50;45.20;96779.53;5036178;28;20029;-29
2023/05/04 09:47:35;;;;;;;2.67;2.22;;;;;;;20.44;45.60;96779.44;5036032;28;20025;-30
2023/05/04 09:50:22;;;;;;;3.35;2.78;;;;;;;20.49;45.63;96768.97;5036034;28;20025;-29
2023/05/04 09:52:48;;;;;;;2.92;2.40;;;;;;;20.37;45.86;96768.84;5035562;28;20052;-29
2023/05/04 09:55:16;;;;;;;2.85;2.50;;;;;;;20.49;45.67;96760.72;5042991;28;20041;-29
2023/05/04 09:57:43;;;;;;;2.80;2.38;;;;;;;20.52;45.50;96765.25;5035980;28;20022;-29
2023/05/04 10:00:12;;;;;;;2.65;2.45;;;;;;;20.46;45.72;96773.44;5035727;28;20030;-29
2023/05/04 10:02:39;;;;;;;3.20;2.90;;;;;;;20.50;46.08;96765.00;5036456;28;20029;-29
2023/05/04 10:05:09;;;;;;;4.35;2.80;;;;;;;20.53;45.93;96773.03;5035901;28;20013;-29
2023/05/04 10:07:35;;;;;;;4.40;2.65;;;;;;;20.52;45.70;96776.28;5036216;28;20481;-29
2023/05/04 10:10:01;;;;;;;3.40;2.90;;;;;;;20.63;45.85;96770.91;5035505;28;20027;-29
2023/05/04 10:12:26;;;;;;;3.10;2.50;;;;;;;20.57;46.15;96759.78;5035637;28;20039;-30
2023/05/04 10:14:53;;;;;;;7.40;3.40;;;;;;;20.63;46.29;96777.16;5035362;28;20021;-29
2023/05/04 10:17:37;;;;;;;3.55;2.90;;;;;;;20.58;46.39;96777.84;5035543;28;20025;-29
2023/05/04 10:20:14;;;;;;;6.90;2.95;;;;;;;20.58;46.67;96775.09;5041065;28;20028;-29
2023/05/04 10:23:18;;;;;;;3.38;2.75;;;;;;;20.71;46.24;96777.47;5035134;28;20108;-29
2023/05/04 10:25:59;;;;;;;3.55;2.65;;;;;;;20.61;45.55;96787.16;5035314;28;20462;-30
2023/05/04 10:28:42;;;;;;;4.55;2.70;;;;;;;20.65;45.47;96790.44;5035488;28;20113;-29
2023/05/04 10:31:08;;;;;;;3.53;2.67;;;;;;;20.67;45.26;96791.47;5035686;28;20452;-29
2023/05/04 10:33:38;;;;;;;8.38;3.28;;;;;;;20.71;44.41;96785.75;5038841;28;20025;-29
2023/05/04 10:36:04;;;;;;;3.42;2.60;;;;;;;20.72;44.36;96790.78;5035625;28;20457;-29
2023/05/04 10:38:38;;;;;;;4.40;2.65;;;;;;;20.70;43.78;96792.50;5035024;28;20031;-29
2023/05/04 10:41:21;;;;;;;3.40;2.33;;;;;;;20.71;44.54;96785.75;5042473;28;20022;-30
2023/05/04 10:43:52;;;;;;;2.90;2.22;;;;;;;20.76;44.45;96790.59;5034962;28;20022;-29
2023/05/04 10:46:21;;;;;;;5.35;2.58;;;;;;;20.68;45.18;96794.97;5034809;28;20080;-30
2023/05/04 10:48:48;;;;;;;5.63;2.55;;;;;;;20.77;45.22;96800.38;5034902;28;20108;-29
2023/05/04 10:51:19;;;;;;;3.50;2.45;;;;;;;20.76;44.69;96794.09;5034838;28;20096;-30
2023/05/04 10:53:46;;;;;;;4.45;2.38;;;;;;;20.80;44.43;96791.09;5038280;28;20069;-29
2023/05/04 10:56:25;;;;;;;2.60;2.30;;;;;;;20.86;44.15;96794.69;5034520;28;20021;-29
2023/05/04 10:58:52;;;;;;;3.13;2.47;;;;;;;20.83;45.39;96794.91;5033928;28;20036;-30
2023/05/04 11:01:18;;;;;;;2.33;2.13;;;;;;;20.79;45.21;96790.34;5035154;28;20032;-29
2023/05/04 11:03:44;;;;;;;3.80;2.33;;;;;;;20.79;44.79;96784.84;5034796;28;20025;-29
2023/05/04 11:06:21;;;;;;;2.85;2.25;;;;;;;20.83;44.51;96792.13;5034358;28;20029;-30
2023/05/04 11:08:57;;;;;;;2.45;2.20;;;;;;;20.77;44.38;96781.06;5034531;28;20029;-29
2023/05/04 11:11:23;;;;;;;5.75;2.30;;;;;;;20.85;44.22;96784.91;5034214;28;20021;-29
2023/05/04 11:13:48;;;;;;;3.50;2.50;;;;;;;20.77;43.76;96781.06;5034725;28;20017;-29
2023/05/04 11:16:22;;;;;;;3.65;2.45;;;;;;;20.76;44.21;96777.56;5034420;28;20080;-30
2023/05/04 11:18:49;;;;;;;2.83;2.50;;;;;;;20.96;44.14;96775.97;5033382;28;20025;-29
2023/05/04 11:21:25;;;;;;;2.45;2.15;;;;;;;20.86;44.53;96783.66;5036987;28;20029;-29
2023/05/04 11:23:58;;;;;;;3.78;2.00;;;;;;;20.96;44.58;96771.22;5034583;28;20477;-29
2023/05/04 11:26:24;;;;;;;2.40;2.10;;;;;;;20.98;44.78;96776.25;5033508;28;20055;-29
2023/05/04 11:28:49;;;;;;;2.30;2.10;;;;;;;20.90;44.49;96781.44;5041454;28;20061;-29
2023/05/04 11:31:18;;;;;;;2.72;2.50;;;;;;;20.96;43.97;96775.97;5034180;28;20057;-30
2023/05/04 11:33:53;;;;;;;4.28;2.67;;;;;;;20.87;43.88;96774.16;5032581;28;20040;-30